Klamath Falls, OR

9:01 PM PDT on August 26, 2016 (GMT -0700)
Plum Hill | | Change Station

Elev 4700 ft 42.25 °N, 121.75 °W | Updated 1 minute ago

Clear
Clear
75.0 °F
Feels Like 76 °F
N
9.8
Wind Variable Wind from NW
Gusts 14.5 mph

Today
High -- | Low -- °F
--% Chance of Precip.
Yesterday
High -- | Low -- °F
Precip. -- in
Pressure 29.89 in
Visibility 10.0 miles
Clouds Clear
Heat Index 76 °F
Dew Point 32 °F
Humidity 21%
Rainfall 0.00 in
Snow Depth Not available.
6:26 AM 7:49 PM
Waning Crescent, 28% visible
METAR KLMT 270353Z 30005KT 10SM CLR 21/02 A3001 RMK AO2 SLP122 T02060022
Pressure 29.89 in
Visibility 10.0 miles
Clouds Clear
Heat Index 76 °F
Dew Point 32 °F
Humidity 21%
Rainfall 0.00 in
Snow Depth Not available.
6:26 AM 7:49 PM
Waning Crescent, 28% visible
METAR KLMT 270353Z 30005KT 10SM CLR 21/02 A3001 RMK AO2 SLP122 T02060022

10-Day Weather Forecast

Almanac

Astronomy

Aug. 26, 2016 Rise Set
Actual Time
Civil Twilight
Nautical Twilight
Astronomical Twilight
Moon
Length of Visible Light
Length of Day
Tomorrow will be .
, % of the Moon is Illuminated

Today's Extremes

State Highs State Lows

Community

WunderPhotos

Upload Photos

1,935,292 photos uploaded!

WunderBlog® & News

Nearby

Air Quality

  Air Quality AQ Index Pollutant
Not available.

Snow Depth

Station Depth Elevation

Earthquake Activity

City Distance Mag. Time & Date
Minimum magnitude displayed is 2.5.

Coastal Water Temperatures

Place Temperature

Stations

Nearby Weather Stations

Station Location Temp. Windchill Dew Point Humidity Wind Precip. Elev Updated Type
                   

Watches & Warnings

There are currently no watches in effect.